PAEI METAR and TAF weather

Enter ICAO airport designator
Station Type Date Time Source
PAEI METAR 2021/01/16 01:56 UTC NOAA

PAEI 160156Z AUTO 12004KT 10SM OVC070 M13/M16 A2946 RMK AO2 SLP990 T11331158 $


Station Type Date Time Source
PAEI Decoded METAR 2021/01/16 01:56 UTC NOAA

Fairbanks, Eielson Air Force Base, AK, United States (PAEI) 64-39N 147-06W 167M
Jan 15, 2021 - 08:56 PM EST / 2021.01.16 0156 UTC
Wind: from the ESE (120 degrees) at 5 MPH (4 KT):0
Visibility: 10 mile(s):0
Sky conditions: overcast
Temperature: 8.1 F (-13.3 C)
Windchill: 0 F (-18 C):1
Dew Point: 3.6 F (-15.8 C)
Relative Humidity: 81%
Pressure (altimeter): 29.46 in. Hg (997 hPa)
ob: PAEI 160156Z AUTO 12004KT 10SM OVC070 M13/M16 A2946 RMK AO2 SLP990 T11331158
cycle: 2

Station Type Date Time Source
PAEI TAF 2021/01/15 22:03 UTC NOAA

TAF TAF PAEI 152200Z 1522/1704 06009KT 9999 SCT020 BKN050 BKN070 620509 530278 QNH2929INS
BECMG 1609/1610 VRB06KT 9999 SCT100 520152 QNH2960INS TXM10/1522Z TNM20/1618Z LAST NO
AMDS AFT 1522 NEXT 1622

Example: see airport list